Aviation Digital Data Service (ADDS)

Output produced by METARs form (1742 UTC 07 December 2021)
found at http://aviationweather.gov/metar/data/
 
METAR text: KUKI 071656Z AUTO 00000KT 7SM OVC005 10/08 A3002 RMK AO2 SLP163 T01000078
Conditions at: KUKI (UKIAH , CA, US) observed 1656 UTC 07 December 2021
Temperature: 10.0°C (50°F)
Dewpoint: 7.8°C (46°F) [RH = 86%]
Pressure (altimeter): 30.02 inches Hg (1016.7 mb)
[Sea-level pressure: 1016.3 mb]
Winds: calm
Visibility: 7 miles (11 km)
Ceiling: 500 feet AGL
Clouds: overcast cloud deck at 500 feet AGL
Weather: automated observation with no human augmentation;
there may or may not be significant weather present at this time

METAR text: KUKI 071637Z AUTO 36003KT 7SM OVC005 10/08 A3002 RMK AO2 T01000078
Conditions at: KUKI (UKIAH , CA, US) observed 1637 UTC 07 December 2021
Temperature: 10.0°C (50°F)
Dewpoint: 7.8°C (46°F) [RH = 86%]
Pressure (altimeter): 30.02 inches Hg (1016.7 mb)
Winds: from the N (360 degrees) at 3 MPH (3 knots; 1.5 m/s)
Visibility: 7 miles (11 km)
Ceiling: 500 feet AGL
Clouds: overcast cloud deck at 500 feet AGL
Weather: automated observation with no human augmentation;
there may or may not be significant weather present at this time

METAR text: KUKI 071556Z AUTO 33003KT 5SM BR OVC003 09/08 A3000 RMK AO2 SLP157 T00940083
Conditions at: KUKI (UKIAH , CA, US) observed 1556 UTC 07 December 2021
Temperature: 9.4°C (49°F)
Dewpoint: 8.3°C (47°F) [RH = 93%]
Pressure (altimeter): 30.00 inches Hg (1016.0 mb)
[Sea-level pressure: 1015.7 mb]
Winds: from the NNW (330 degrees) at 3 MPH (3 knots; 1.5 m/s)
Visibility: 5 miles ( 8 km)
Ceiling: 300 feet AGL
Clouds: overcast cloud deck at 300 feet AGL
Weather: BR  (mist)

Forecast for: KUKI (UKIAH , CA, US)
Text: KUKI 071733Z 0718/0818 35003KT 6SM BR OVC005
Forecast period: 1800 to 2000 UTC 07 December 2021
Forecast type: FROM: standard forecast or significant change
Winds: from the N (350 degrees) at 3 MPH (3 knots; 1.5 m/s)
Visibility: 6 miles (10 km)
Ceiling: 500 feet AGL
Clouds: overcast cloud deck at 500 feet AGL
Weather: BR  (mist)
Text: TEMPO 0719/0720 SCT005 SCT250
Forecast period: 1900 to 2000 UTC 07 December 2021
Forecast type: TEMPORARY: The following changes expected for less than half the time period
Visibility: missing
Ceiling: at least 12,000 feet AGL
Clouds: scattered clouds at 500 feet AGL
scattered clouds at 25000 feet AGL
Weather: no significant weather forecast for this period
Text: FM072000 VRB05KT P6SM FEW050 SCT250
Forecast period: 2000 UTC 07 December 2021 to 0300 UTC 08 December 2021
Forecast type: FROM: standard forecast or significant change
Winds: variable direction winds at 6 MPH (5 knots; 2.6 m/s)
Visibility: 6 or more miles (10+ km)
Ceiling: at least 12,000 feet AGL
Clouds: few clouds at 5000 feet AGL
scattered clouds at 25000 feet AGL
Weather: no significant weather forecast for this period
Text: FM080300 00000KT 6SM BR BKN250
Forecast period: 0300 to 0600 UTC 08 December 2021
Forecast type: FROM: standard forecast or significant change
Winds: calm
Visibility: 6 miles (10 km)
Ceiling: 25000 feet AGL
Clouds: broken clouds at 25000 feet AGL
Weather: BR  (mist)
Text: FM080600 00000KT 3SM -DZ BR BKN005
Forecast period: 0600 to 1800 UTC 08 December 2021
Forecast type: FROM: standard forecast or significant change
Winds: calm
Visibility: 3 miles (5 km)
Ceiling: 500 feet AGL
Clouds: broken clouds at 500 feet AGL
Weather: -DZ BR  (light drizzle, mist)